Aviation Digital Data Service (ADDS)

Output produced by METARs form (1205 UTC 31 October 2014)
found at http://www.aviationweather.gov/adds/metars/
 
KLNS 311153Z 00000KT 10SM OVC055 06/03 A3001 RMK AO2 SLP164 T00610033 10072 20061 50001
KLNS 311154Z 3112/0112 08004KT P6SM OVC050 
     FM010000 05005KT P6SM OVC045 
     FM010500 02007KT P6SM OVC040 
     FM011000 02010KT P6SM -RA OVC030